sensor_id;sensor_type;location;lat;lon;timestamp;P1;durP1;ratioP1;P2;durP2;ratioP2
64060;SDS011;60147;55.036;73.242;2022-08-21T00:00:19;12.32;;;6.32;;
64060;SDS011;60147;55.036;73.242;2022-08-21T00:02:46;10.95;;;6.35;;
64060;SDS011;60147;55.036;73.242;2022-08-21T00:05:13;10.60;;;6.15;;
64060;SDS011;60147;55.036;73.242;2022-08-21T00:07:39;11.45;;;6.07;;
64060;SDS011;60147;55.036;73.242;2022-08-21T00:10:05;9.90;;;6.03;;
64060;SDS011;60147;55.036;73.242;2022-08-21T00:12:31;9.63;;;5.95;;
64060;SDS011;60147;55.036;73.242;2022-08-21T00:14:58;11.43;;;6.60;;
64060;SDS011;60147;55.036;73.242;2022-08-21T00:17:24;10.40;;;5.93;;
64060;SDS011;60147;55.036;73.242;2022-08-21T00:19:49;11.73;;;6.10;;
64060;SDS011;60147;55.036;73.242;2022-08-21T00:22:15;12.70;;;6.40;;
64060;SDS011;60147;55.036;73.242;2022-08-21T00:24:41;10.52;;;6.50;;
64060;SDS011;60147;55.036;73.242;2022-08-21T00:27:17;11.73;;;6.03;;
64060;SDS011;60147;55.036;73.242;2022-08-21T00:29:43;9.38;;;6.13;;
64060;SDS011;60147;55.036;73.242;2022-08-21T00:32:09;10.73;;;6.57;;
64060;SDS011;60147;55.036;73.242;2022-08-21T00:34:40;8.52;;;6.03;;
64060;SDS011;60147;55.036;73.242;2022-08-21T00:37:06;8.48;;;5.80;;
64060;SDS011;60147;55.036;73.242;2022-08-21T00:39:34;10.30;;;5.40;;
64060;SDS011;60147;55.036;73.242;2022-08-21T00:42:00;9.00;;;5.78;;
64060;SDS011;60147;55.036;73.242;2022-08-21T00:44:36;8.98;;;5.40;;
64060;SDS011;60147;55.036;73.242;2022-08-21T00:47:02;13.23;;;5.85;;
64060;SDS011;60147;55.036;73.242;2022-08-21T00:49:39;8.45;;;4.90;;
64060;SDS011;60147;55.036;73.242;2022-08-21T00:52:07;9.20;;;5.60;;
64060;SDS011;60147;55.036;73.242;2022-08-21T00:54:33;9.45;;;5.88;;
64060;SDS011;60147;55.036;73.242;2022-08-21T00:57:00;9.75;;;5.85;;
64060;SDS011;60147;55.036;73.242;2022-08-21T00:59:27;10.68;;;5.90;;
64060;SDS011;60147;55.036;73.242;2022-08-21T01:01:55;10.00;;;5.55;;
64060;SDS011;60147;55.036;73.242;2022-08-21T01:04:21;10.93;;;5.72;;
64060;SDS011;60147;55.036;73.242;2022-08-21T01:06:48;11.20;;;5.72;;
64060;SDS011;60147;55.036;73.242;2022-08-21T01:09:18;10.95;;;5.80;;
64060;SDS011;60147;55.036;73.242;2022-08-21T01:11:50;11.65;;;5.70;;
64060;SDS011;60147;55.036;73.242;2022-08-21T01:14:23;10.40;;;5.80;;
64060;SDS011;60147;55.036;73.242;2022-08-21T01:16:54;9.90;;;4.97;;
64060;SDS011;60147;55.036;73.242;2022-08-21T01:19:30;11.00;;;6.38;;
64060;SDS011;60147;55.036;73.242;2022-08-21T01:21:56;11.85;;;5.80;;
64060;SDS011;60147;55.036;73.242;2022-08-21T01:24:22;10.80;;;6.10;;
64060;SDS011;60147;55.036;73.242;2022-08-21T01:26:48;9.77;;;6.18;;
64060;SDS011;60147;55.036;73.242;2022-08-21T01:31:40;11.82;;;6.18;;
64060;SDS011;60147;55.036;73.242;2022-08-21T01:34:07;12.43;;;6.28;;
64060;SDS011;60147;55.036;73.242;2022-08-21T01:36:33;15.20;;;6.20;;
64060;SDS011;60147;55.036;73.242;2022-08-21T01:38:59;11.45;;;6.10;;
64060;SDS011;60147;55.036;73.242;2022-08-21T01:41:25;14.30;;;6.75;;
64060;SDS011;60147;55.036;73.242;2022-08-21T01:43:51;13.27;;;7.25;;
64060;SDS011;60147;55.036;73.242;2022-08-21T01:46:17;11.27;;;6.15;;
64060;SDS011;60147;55.036;73.242;2022-08-21T01:48:48;13.00;;;6.45;;
64060;SDS011;60147;55.036;73.242;2022-08-21T01:51:14;11.68;;;6.65;;
64060;SDS011;60147;55.036;73.242;2022-08-21T01:53:40;13.82;;;7.70;;
64060;SDS011;60147;55.036;73.242;2022-08-21T01:56:08;15.23;;;8.15;;
64060;SDS011;60147;55.036;73.242;2022-08-21T01:58:35;11.95;;;7.25;;
64060;SDS011;60147;55.036;73.242;2022-08-21T02:01:03;16.60;;;7.00;;
64060;SDS011;60147;55.036;73.242;2022-08-21T02:03:30;9.80;;;6.40;;
64060;SDS011;60147;55.036;73.242;2022-08-21T02:05:55;10.32;;;6.38;;
64060;SDS011;60147;55.036;73.242;2022-08-21T02:08:22;11.73;;;6.53;;
64060;SDS011;60147;55.036;73.242;2022-08-21T02:10:51;12.82;;;6.65;;
64060;SDS011;60147;55.036;73.242;2022-08-21T02:13:17;7.95;;;5.68;;
64060;SDS011;60147;55.036;73.242;2022-08-21T02:15:43;12.30;;;6.68;;
64060;SDS011;60147;55.036;73.242;2022-08-21T02:18:19;8.95;;;6.45;;
64060;SDS011;60147;55.036;73.242;2022-08-21T02:20:48;8.20;;;5.90;;
64060;SDS011;60147;55.036;73.242;2022-08-21T02:23:14;9.48;;;6.70;;
64060;SDS011;60147;55.036;73.242;2022-08-21T02:25:41;8.15;;;5.72;;
64060;SDS011;60147;55.036;73.242;2022-08-21T02:28:14;9.20;;;6.07;;
64060;SDS011;60147;55.036;73.242;2022-08-21T02:30:43;12.38;;;5.90;;
64060;SDS011;60147;55.036;73.242;2022-08-21T02:33:09;9.88;;;5.90;;
64060;SDS011;60147;55.036;73.242;2022-08-21T02:35:41;11.27;;;6.05;;
64060;SDS011;60147;55.036;73.242;2022-08-21T02:38:09;8.30;;;5.60;;
64060;SDS011;60147;55.036;73.242;2022-08-21T02:40:36;7.53;;;5.60;;
64060;SDS011;60147;55.036;73.242;2022-08-21T02:43:04;10.15;;;5.65;;
64060;SDS011;60147;55.036;73.242;2022-08-21T02:45:30;8.93;;;4.97;;
64060;SDS011;60147;55.036;73.242;2022-08-21T02:47:58;8.23;;;5.10;;
64060;SDS011;60147;55.036;73.242;2022-08-21T02:50:36;9.18;;;5.38;;
64060;SDS011;60147;55.036;73.242;2022-08-21T02:53:14;10.70;;;6.10;;
64060;SDS011;60147;55.036;73.242;2022-08-21T02:55:51;8.40;;;5.45;;
64060;SDS011;60147;55.036;73.242;2022-08-21T02:58:24;6.82;;;5.18;;
64060;SDS011;60147;55.036;73.242;2022-08-21T03:00:51;11.30;;;5.85;;
64060;SDS011;60147;55.036;73.242;2022-08-21T03:03:17;10.55;;;6.10;;
64060;SDS011;60147;55.036;73.242;2022-08-21T03:05:43;10.27;;;6.10;;
64060;SDS011;60147;55.036;73.242;2022-08-21T03:08:10;7.38;;;5.40;;
64060;SDS011;60147;55.036;73.242;2022-08-21T03:10:41;9.02;;;5.57;;
64060;SDS011;60147;55.036;73.242;2022-08-21T03:13:08;10.45;;;6.55;;
64060;SDS011;60147;55.036;73.242;2022-08-21T03:15:34;9.32;;;6.15;;
64060;SDS011;60147;55.036;73.242;2022-08-21T03:18:01;9.30;;;5.95;;
64060;SDS011;60147;55.036;73.242;2022-08-21T03:20:28;9.48;;;5.60;;
64060;SDS011;60147;55.036;73.242;2022-08-21T03:23:00;10.85;;;6.38;;
64060;SDS011;60147;55.036;73.242;2022-08-21T03:25:27;9.57;;;6.20;;
64060;SDS011;60147;55.036;73.242;2022-08-21T03:27:54;9.25;;;6.40;;
64060;SDS011;60147;55.036;73.242;2022-08-21T03:30:20;13.85;;;7.40;;
64060;SDS011;60147;55.036;73.242;2022-08-21T03:32:52;11.77;;;6.68;;
64060;SDS011;60147;55.036;73.242;2022-08-21T03:35:23;11.10;;;6.57;;
64060;SDS011;60147;55.036;73.242;2022-08-21T03:38:00;13.10;;;7.25;;
64060;SDS011;60147;55.036;73.242;2022-08-21T03:40:26;13.95;;;8.45;;
64060;SDS011;60147;55.036;73.242;2022-08-21T03:43:00;11.38;;;7.15;;
64060;SDS011;60147;55.036;73.242;2022-08-21T03:45:27;15.10;;;7.40;;
64060;SDS011;60147;55.036;73.242;2022-08-21T03:47:55;9.85;;;6.95;;
64060;SDS011;60147;55.036;73.242;2022-08-21T03:50:23;13.30;;;7.32;;
64060;SDS011;60147;55.036;73.242;2022-08-21T03:52:49;14.68;;;7.45;;
64060;SDS011;60147;55.036;73.242;2022-08-21T03:55:20;16.08;;;8.30;;
64060;SDS011;60147;55.036;73.242;2022-08-21T03:57:56;11.98;;;7.80;;
64060;SDS011;60147;55.036;73.242;2022-08-21T04:00:22;13.73;;;7.82;;
64060;SDS011;60147;55.036;73.242;2022-08-21T04:02:48;14.75;;;7.65;;
64060;SDS011;60147;55.036;73.242;2022-08-21T04:05:15;15.80;;;7.57;;
64060;SDS011;60147;55.036;73.242;2022-08-21T04:07:59;19.98;;;8.38;;
64060;SDS011;60147;55.036;73.242;2022-08-21T04:10:32;17.08;;;7.93;;
64060;SDS011;60147;55.036;73.242;2022-08-21T04:12:58;14.63;;;7.72;;
64060;SDS011;60147;55.036;73.242;2022-08-21T04:15:31;11.95;;;6.43;;
64060;SDS011;60147;55.036;73.242;2022-08-21T04:17:57;12.75;;;6.80;;
64060;SDS011;60147;55.036;73.242;2022-08-21T04:20:26;11.00;;;6.13;;
64060;SDS011;60147;55.036;73.242;2022-08-21T04:23:01;12.32;;;6.60;;
64060;SDS011;60147;55.036;73.242;2022-08-21T04:25:27;10.75;;;7.18;;
64060;SDS011;60147;55.036;73.242;2022-08-21T04:27:53;14.25;;;7.15;;
64060;SDS011;60147;55.036;73.242;2022-08-21T04:30:27;12.75;;;7.35;;
64060;SDS011;60147;55.036;73.242;2022-08-21T04:32:57;16.13;;;7.37;;
64060;SDS011;60147;55.036;73.242;2022-08-21T04:35:24;10.43;;;6.88;;
64060;SDS011;60147;55.036;73.242;2022-08-21T04:37:52;12.13;;;6.70;;
64060;SDS011;60147;55.036;73.242;2022-08-21T04:40:19;12.13;;;6.88;;
64060;SDS011;60147;55.036;73.242;2022-08-21T04:42:57;10.98;;;6.63;;
64060;SDS011;60147;55.036;73.242;2022-08-21T04:48:10;12.07;;;9.32;;
64060;SDS011;60147;55.036;73.242;2022-08-21T04:53:05;22.35;;;18.83;;
64060;SDS011;60147;55.036;73.242;2022-08-21T04:55:33;13.77;;;9.93;;
64060;SDS011;60147;55.036;73.242;2022-08-21T04:57:59;15.32;;;8.88;;
64060;SDS011;60147;55.036;73.242;2022-08-21T05:00:35;14.57;;;9.95;;
64060;SDS011;60147;55.036;73.242;2022-08-21T05:03:02;12.35;;;6.97;;
64060;SDS011;60147;55.036;73.242;2022-08-21T05:05:29;8.85;;;5.35;;
64060;SDS011;60147;55.036;73.242;2022-08-21T05:10:25;10.77;;;6.40;;
64060;SDS011;60147;55.036;73.242;2022-08-21T05:12:52;8.88;;;4.72;;
64060;SDS011;60147;55.036;73.242;2022-08-21T05:15:27;10.48;;;5.30;;
64060;SDS011;60147;55.036;73.242;2022-08-21T05:18:04;9.55;;;6.35;;
64060;SDS011;60147;55.036;73.242;2022-08-21T05:20:32;17.25;;;7.07;;
64060;SDS011;60147;55.036;73.242;2022-08-21T05:22:59;12.90;;;6.68;;
64060;SDS011;60147;55.036;73.242;2022-08-21T05:25:31;11.85;;;6.25;;
64060;SDS011;60147;55.036;73.242;2022-08-21T05:27:57;11.77;;;6.93;;
64060;SDS011;60147;55.036;73.242;2022-08-21T05:30:23;12.25;;;6.90;;
64060;SDS011;60147;55.036;73.242;2022-08-21T05:32:48;13.00;;;8.65;;
64060;SDS011;60147;55.036;73.242;2022-08-21T05:35:25;15.45;;;8.73;;
64060;SDS011;60147;55.036;73.242;2022-08-21T05:38:10;15.80;;;9.02;;
64060;SDS011;60147;55.036;73.242;2022-08-21T05:40:36;11.80;;;7.47;;
64060;SDS011;60147;55.036;73.242;2022-08-21T05:43:02;17.65;;;10.05;;
64060;SDS011;60147;55.036;73.242;2022-08-21T05:45:29;22.27;;;11.35;;
64060;SDS011;60147;55.036;73.242;2022-08-21T05:47:55;14.65;;;8.50;;
64060;SDS011;60147;55.036;73.242;2022-08-21T05:50:21;83.10;;;34.00;;
64060;SDS011;60147;55.036;73.242;2022-08-21T05:52:48;41.00;;;23.88;;
64060;SDS011;60147;55.036;73.242;2022-08-21T05:55:14;18.30;;;10.75;;
64060;SDS011;60147;55.036;73.242;2022-08-21T05:57:39;15.60;;;7.72;;
64060;SDS011;60147;55.036;73.242;2022-08-21T06:00:09;17.67;;;12.82;;
64060;SDS011;60147;55.036;73.242;2022-08-21T06:02:43;6.82;;;3.28;;
64060;SDS011;60147;55.036;73.242;2022-08-21T06:05:09;5.68;;;3.47;;
64060;SDS011;60147;55.036;73.242;2022-08-21T06:07:35;12.75;;;11.25;;
64060;SDS011;60147;55.036;73.242;2022-08-21T06:10:02;26.00;;;23.30;;
64060;SDS011;60147;55.036;73.242;2022-08-21T06:12:28;22.00;;;19.70;;
64060;SDS011;60147;55.036;73.242;2022-08-21T06:14:54;7.57;;;5.97;;
64060;SDS011;60147;55.036;73.242;2022-08-21T06:17:20;5.95;;;4.43;;
64060;SDS011;60147;55.036;73.242;2022-08-21T06:19:50;7.28;;;4.82;;
64060;SDS011;60147;55.036;73.242;2022-08-21T06:22:16;8.18;;;3.92;;
64060;SDS011;60147;55.036;73.242;2022-08-21T06:24:42;13.50;;;7.55;;
64060;SDS011;60147;55.036;73.242;2022-08-21T06:27:08;16.20;;;12.65;;
64060;SDS011;60147;55.036;73.242;2022-08-21T06:29:34;17.92;;;7.43;;
64060;SDS011;60147;55.036;73.242;2022-08-21T06:32:00;14.77;;;6.78;;
64060;SDS011;60147;55.036;73.242;2022-08-21T06:34:26;15.27;;;6.90;;
64060;SDS011;60147;55.036;73.242;2022-08-21T06:36:54;8.13;;;3.83;;
64060;SDS011;60147;55.036;73.242;2022-08-21T06:39:20;6.38;;;2.70;;
64060;SDS011;60147;55.036;73.242;2022-08-21T06:41:46;7.25;;;3.17;;
64060;SDS011;60147;55.036;73.242;2022-08-21T06:44:18;14.88;;;3.42;;
64060;SDS011;60147;55.036;73.242;2022-08-21T06:46:54;9.70;;;3.60;;
64060;SDS011;60147;55.036;73.242;2022-08-21T06:49:20;5.00;;;3.00;;
64060;SDS011;60147;55.036;73.242;2022-08-21T06:51:46;4.53;;;2.67;;
64060;SDS011;60147;55.036;73.242;2022-08-21T06:54:12;3.65;;;1.77;;
64060;SDS011;60147;55.036;73.242;2022-08-21T06:56:38;3.67;;;1.90;;
64060;SDS011;60147;55.036;73.242;2022-08-21T06:59:08;4.15;;;1.98;;
64060;SDS011;60147;55.036;73.242;2022-08-21T07:01:45;2.83;;;1.52;;
64060;SDS011;60147;55.036;73.242;2022-08-21T07:04:11;2.78;;;1.65;;
64060;SDS011;60147;55.036;73.242;2022-08-21T07:06:40;2.22;;;1.10;;
64060;SDS011;60147;55.036;73.242;2022-08-21T07:09:06;4.93;;;2.45;;
64060;SDS011;60147;55.036;73.242;2022-08-21T07:11:50;12.23;;;2.20;;
64060;SDS011;60147;55.036;73.242;2022-08-21T07:14:17;8.32;;;2.10;;
64060;SDS011;60147;55.036;73.242;2022-08-21T07:16:42;8.35;;;2.05;;
64060;SDS011;60147;55.036;73.242;2022-08-21T07:19:08;12.35;;;2.65;;
64060;SDS011;60147;55.036;73.242;2022-08-21T07:21:34;30.85;;;7.13;;
64060;SDS011;60147;55.036;73.242;2022-08-21T07:24:00;24.48;;;9.57;;
64060;SDS011;60147;55.036;73.242;2022-08-21T07:26:31;5.55;;;3.35;;
64060;SDS011;60147;55.036;73.242;2022-08-21T07:28:57;7.15;;;3.35;;
64060;SDS011;60147;55.036;73.242;2022-08-21T07:31:28;6.47;;;3.10;;
64060;SDS011;60147;55.036;73.242;2022-08-21T07:33:54;5.15;;;2.28;;
64060;SDS011;60147;55.036;73.242;2022-08-21T07:36:20;3.55;;;1.90;;
64060;SDS011;60147;55.036;73.242;2022-08-21T07:38:46;3.30;;;1.63;;
64060;SDS011;60147;55.036;73.242;2022-08-21T07:41:18;3.97;;;1.70;;
64060;SDS011;60147;55.036;73.242;2022-08-21T07:43:44;5.13;;;2.60;;
64060;SDS011;60147;55.036;73.242;2022-08-21T07:46:16;6.38;;;2.88;;
64060;SDS011;60147;55.036;73.242;2022-08-21T07:48:42;6.25;;;3.60;;
64060;SDS011;60147;55.036;73.242;2022-08-21T07:51:09;3.95;;;2.08;;
64060;SDS011;60147;55.036;73.242;2022-08-21T07:53:36;4.90;;;1.73;;
64060;SDS011;60147;55.036;73.242;2022-08-21T07:56:02;7.90;;;2.47;;
64060;SDS011;60147;55.036;73.242;2022-08-21T07:58:30;11.07;;;2.53;;
64060;SDS011;60147;55.036;73.242;2022-08-21T08:00:56;18.85;;;3.65;;
64060;SDS011;60147;55.036;73.242;2022-08-21T08:03:22;10.07;;;2.80;;
64060;SDS011;60147;55.036;73.242;2022-08-21T08:05:48;4.38;;;1.58;;
64060;SDS011;60147;55.036;73.242;2022-08-21T08:08:14;2.97;;;1.52;;
64060;SDS011;60147;55.036;73.242;2022-08-21T08:10:40;3.30;;;1.50;;
64060;SDS011;60147;55.036;73.242;2022-08-21T08:13:06;5.80;;;1.58;;
64060;SDS011;60147;55.036;73.242;2022-08-21T08:15:32;3.33;;;1.40;;
64060;SDS011;60147;55.036;73.242;2022-08-21T08:17:58;3.53;;;1.70;;
64060;SDS011;60147;55.036;73.242;2022-08-21T08:20:33;3.05;;;1.40;;
64060;SDS011;60147;55.036;73.242;2022-08-21T08:23:13;9.65;;;4.25;;
64060;SDS011;60147;55.036;73.242;2022-08-21T08:25:39;10.30;;;5.28;;
64060;SDS011;60147;55.036;73.242;2022-08-21T08:28:06;8.98;;;3.45;;
64060;SDS011;60147;55.036;73.242;2022-08-21T08:30:32;3.78;;;1.77;;
64060;SDS011;60147;55.036;73.242;2022-08-21T08:32:58;4.05;;;1.75;;
64060;SDS011;60147;55.036;73.242;2022-08-21T08:35:25;4.00;;;1.90;;
64060;SDS011;60147;55.036;73.242;2022-08-21T08:37:51;4.80;;;1.70;;
64060;SDS011;60147;55.036;73.242;2022-08-21T08:42:56;4.97;;;1.70;;
64060;SDS011;60147;55.036;73.242;2022-08-21T08:45:27;3.30;;;1.25;;
64060;SDS011;60147;55.036;73.242;2022-08-21T08:48:05;6.88;;;1.58;;
64060;SDS011;60147;55.036;73.242;2022-08-21T08:51:08;4.72;;;1.50;;
64060;SDS011;60147;55.036;73.242;2022-08-21T08:53:38;3.10;;;1.40;;
64060;SDS011;60147;55.036;73.242;2022-08-21T08:56:06;2.83;;;1.35;;
64060;SDS011;60147;55.036;73.242;2022-08-21T08:58:34;4.13;;;1.52;;
64060;SDS011;60147;55.036;73.242;2022-08-21T09:01:11;2.78;;;1.63;;
64060;SDS011;60147;55.036;73.242;2022-08-21T09:03:53;4.55;;;1.80;;
64060;SDS011;60147;55.036;73.242;2022-08-21T09:14:00;8.95;;;4.53;;
64060;SDS011;60147;55.036;73.242;2022-08-21T09:27:12;3.53;;;1.80;;
64060;SDS011;60147;55.036;73.242;2022-08-21T09:29:43;6.03;;;2.45;;
64060;SDS011;60147;55.036;73.242;2022-08-21T09:32:21;3.67;;;2.00;;
64060;SDS011;60147;55.036;73.242;2022-08-21T09:37:22;8.13;;;3.67;;
64060;SDS011;60147;55.036;73.242;2022-08-21T09:39:53;7.03;;;3.20;;
64060;SDS011;60147;55.036;73.242;2022-08-21T09:42:30;4.97;;;2.40;;
64060;SDS011;60147;55.036;73.242;2022-08-21T09:47:40;7.67;;;3.90;;
64060;SDS011;60147;55.036;73.242;2022-08-21T09:50:11;5.43;;;3.00;;
64060;SDS011;60147;55.036;73.242;2022-08-21T09:52:51;4.65;;;2.42;;
64060;SDS011;60147;55.036;73.242;2022-08-21T09:55:19;13.27;;;5.32;;
64060;SDS011;60147;55.036;73.242;2022-08-21T09:58:10;9.63;;;2.75;;
64060;SDS011;60147;55.036;73.242;2022-08-21T10:00:36;8.45;;;2.45;;
64060;SDS011;60147;55.036;73.242;2022-08-21T10:03:16;3.63;;;1.95;;
64060;SDS011;60147;55.036;73.242;2022-08-21T10:05:55;4.38;;;1.80;;
64060;SDS011;60147;55.036;73.242;2022-08-21T10:08:22;4.30;;;1.83;;
64060;SDS011;60147;55.036;73.242;2022-08-21T10:10:55;4.25;;;1.90;;
64060;SDS011;60147;55.036;73.242;2022-08-21T10:13:45;6.68;;;2.10;;
64060;SDS011;60147;55.036;73.242;2022-08-21T10:16:24;5.47;;;2.10;;
64060;SDS011;60147;55.036;73.242;2022-08-21T10:19:07;5.57;;;2.90;;
64060;SDS011;60147;55.036;73.242;2022-08-21T10:24:12;4.20;;;2.22;;
64060;SDS011;60147;55.036;73.242;2022-08-21T10:26:45;3.50;;;2.25;;
64060;SDS011;60147;55.036;73.242;2022-08-21T10:29:18;9.10;;;2.63;;
64060;SDS011;60147;55.036;73.242;2022-08-21T10:32:02;6.57;;;4.50;;
64060;SDS011;60147;55.036;73.242;2022-08-21T10:39:48;7.35;;;4.15;;
64060;SDS011;60147;55.036;73.242;2022-08-21T10:42:32;8.68;;;2.63;;
64060;SDS011;60147;55.036;73.242;2022-08-21T10:47:35;5.00;;;2.20;;
64060;SDS011;60147;55.036;73.242;2022-08-21T10:56:17;9.50;;;6.00;;
64060;SDS011;60147;55.036;73.242;2022-08-21T10:58:50;5.47;;;3.50;;
64060;SDS011;60147;55.036;73.242;2022-08-21T11:01:45;7.53;;;4.13;;
64060;SDS011;60147;55.036;73.242;2022-08-21T11:06:58;16.67;;;11.25;;
64060;SDS011;60147;55.036;73.242;2022-08-21T11:09:26;6.55;;;3.58;;
64060;SDS011;60147;55.036;73.242;2022-08-21T11:11:56;11.90;;;4.63;;
64060;SDS011;60147;55.036;73.242;2022-08-21T11:17:15;9.02;;;2.72;;
64060;SDS011;60147;55.036;73.242;2022-08-21T11:19:45;6.32;;;2.40;;
64060;SDS011;60147;55.036;73.242;2022-08-21T11:22:23;6.20;;;2.50;;
64060;SDS011;60147;55.036;73.242;2022-08-21T11:30:09;5.53;;;2.90;;
64060;SDS011;60147;55.036;73.242;2022-08-21T11:35:44;213.07;;;13.00;;
64060;SDS011;60147;55.036;73.242;2022-08-21T11:38:35;260.33;;;14.02;;
64060;SDS011;60147;55.036;73.242;2022-08-21T11:44:02;33.63;;;5.90;;
64060;SDS011;60147;55.036;73.242;2022-08-21T11:49:11;12.23;;;2.30;;
64060;SDS011;60147;55.036;73.242;2022-08-21T11:51:53;6.00;;;2.50;;
64060;SDS011;60147;55.036;73.242;2022-08-21T11:56:50;9.10;;;3.20;;
64060;SDS011;60147;55.036;73.242;2022-08-21T11:59:27;11.93;;;3.90;;
64060;SDS011;60147;55.036;73.242;2022-08-21T12:01:57;11.05;;;2.80;;
64060;SDS011;60147;55.036;73.242;2022-08-21T12:04:34;35.25;;;7.18;;
64060;SDS011;60147;55.036;73.242;2022-08-21T12:07:10;22.10;;;5.05;;
64060;SDS011;60147;55.036;73.242;2022-08-21T12:09:36;25.83;;;8.65;;
64060;SDS011;60147;55.036;73.242;2022-08-21T12:12:09;23.73;;;7.88;;
64060;SDS011;60147;55.036;73.242;2022-08-21T12:14:40;8.10;;;3.13;;
64060;SDS011;60147;55.036;73.242;2022-08-21T12:17:07;6.57;;;2.83;;
64060;SDS011;60147;55.036;73.242;2022-08-21T12:19:33;9.90;;;3.80;;
64060;SDS011;60147;55.036;73.242;2022-08-21T12:26:59;5.50;;;2.08;;
64060;SDS011;60147;55.036;73.242;2022-08-21T12:29:26;6.22;;;1.92;;
64060;SDS011;60147;55.036;73.242;2022-08-21T12:31:57;8.95;;;2.25;;
64060;SDS011;60147;55.036;73.242;2022-08-21T12:34:25;4.97;;;1.73;;
64060;SDS011;60147;55.036;73.242;2022-08-21T12:36:56;6.95;;;2.00;;
64060;SDS011;60147;55.036;73.242;2022-08-21T12:39:24;7.68;;;2.95;;
64060;SDS011;60147;55.036;73.242;2022-08-21T12:44:42;4.75;;;2.00;;
64060;SDS011;60147;55.036;73.242;2022-08-21T12:47:21;4.80;;;2.50;;
64060;SDS011;60147;55.036;73.242;2022-08-21T12:49:54;7.68;;;2.60;;
64060;SDS011;60147;55.036;73.242;2022-08-21T12:52:31;5.90;;;2.47;;
64060;SDS011;60147;55.036;73.242;2022-08-21T12:54:58;8.20;;;2.00;;
64060;SDS011;60147;55.036;73.242;2022-08-21T12:57:29;4.97;;;2.08;;
64060;SDS011;60147;55.036;73.242;2022-08-21T13:00:00;5.88;;;2.28;;
64060;SDS011;60147;55.036;73.242;2022-08-21T13:02:29;5.00;;;2.20;;
64060;SDS011;60147;55.036;73.242;2022-08-21T13:04:56;9.35;;;3.17;;
64060;SDS011;60147;55.036;73.242;2022-08-21T13:07:28;11.27;;;5.63;;
64060;SDS011;60147;55.036;73.242;2022-08-21T13:09:56;17.92;;;9.48;;
64060;SDS011;60147;55.036;73.242;2022-08-21T13:12:23;36.15;;;27.40;;
64060;SDS011;60147;55.036;73.242;2022-08-21T13:14:49;14.88;;;9.75;;
64060;SDS011;60147;55.036;73.242;2022-08-21T13:17:18;10.80;;;6.03;;
64060;SDS011;60147;55.036;73.242;2022-08-21T13:19:59;12.93;;;7.00;;
64060;SDS011;60147;55.036;73.242;2022-08-21T13:22:26;17.85;;;8.13;;
64060;SDS011;60147;55.036;73.242;2022-08-21T13:24:52;47.50;;;20.00;;
64060;SDS011;60147;55.036;73.242;2022-08-21T13:27:20;80.53;;;34.28;;
64060;SDS011;60147;55.036;73.242;2022-08-21T13:29:47;62.65;;;26.58;;
64060;SDS011;60147;55.036;73.242;2022-08-21T13:32:17;44.85;;;25.23;;
64060;SDS011;60147;55.036;73.242;2022-08-21T13:34:45;23.33;;;13.48;;
64060;SDS011;60147;55.036;73.242;2022-08-21T13:37:11;11.95;;;6.72;;
64060;SDS011;60147;55.036;73.242;2022-08-21T13:39:37;10.60;;;4.95;;
64060;SDS011;60147;55.036;73.242;2022-08-21T13:42:04;8.52;;;3.92;;
64060;SDS011;60147;55.036;73.242;2022-08-21T13:44:41;8.75;;;3.80;;
64060;SDS011;60147;55.036;73.242;2022-08-21T13:47:09;9.32;;;5.15;;
64060;SDS011;60147;55.036;73.242;2022-08-21T13:49:36;9.07;;;4.68;;
64060;SDS011;60147;55.036;73.242;2022-08-21T13:52:21;10.05;;;4.40;;
64060;SDS011;60147;55.036;73.242;2022-08-21T13:54:55;9.13;;;3.35;;
64060;SDS011;60147;55.036;73.242;2022-08-21T13:57:29;9.18;;;4.00;;
64060;SDS011;60147;55.036;73.242;2022-08-21T14:02:39;6.80;;;3.28;;
64060;SDS011;60147;55.036;73.242;2022-08-21T14:05:06;5.55;;;2.97;;
64060;SDS011;60147;55.036;73.242;2022-08-21T14:10:05;7.97;;;2.22;;
64060;SDS011;60147;55.036;73.242;2022-08-21T14:12:38;4.78;;;2.08;;
64060;SDS011;60147;55.036;73.242;2022-08-21T14:15:06;5.10;;;1.98;;
64060;SDS011;60147;55.036;73.242;2022-08-21T14:17:33;8.38;;;1.63;;
64060;SDS011;60147;55.036;73.242;2022-08-21T14:20:00;5.00;;;2.70;;
64060;SDS011;60147;55.036;73.242;2022-08-21T14:24:59;6.10;;;2.15;;
64060;SDS011;60147;55.036;73.242;2022-08-21T14:27:36;6.75;;;2.17;;
64060;SDS011;60147;55.036;73.242;2022-08-21T14:30:09;3.55;;;1.52;;
64060;SDS011;60147;55.036;73.242;2022-08-21T14:32:54;11.85;;;3.15;;
64060;SDS011;60147;55.036;73.242;2022-08-21T14:35:20;7.63;;;3.42;;
64060;SDS011;60147;55.036;73.242;2022-08-21T14:37:47;6.35;;;3.25;;
64060;SDS011;60147;55.036;73.242;2022-08-21T14:40:16;8.63;;;2.92;;
64060;SDS011;60147;55.036;73.242;2022-08-21T14:42:42;5.57;;;2.85;;
64060;SDS011;60147;55.036;73.242;2022-08-21T14:45:30;6.95;;;2.78;;
64060;SDS011;60147;55.036;73.242;2022-08-21T14:47:55;8.55;;;3.28;;
64060;SDS011;60147;55.036;73.242;2022-08-21T14:50:31;7.70;;;3.60;;
64060;SDS011;60147;55.036;73.242;2022-08-21T14:52:57;6.68;;;3.38;;
64060;SDS011;60147;55.036;73.242;2022-08-21T14:55:23;6.72;;;3.15;;
64060;SDS011;60147;55.036;73.242;2022-08-21T14:57:54;10.10;;;2.92;;
64060;SDS011;60147;55.036;73.242;2022-08-21T15:00:22;8.80;;;3.13;;
64060;SDS011;60147;55.036;73.242;2022-08-21T15:02:49;4.80;;;2.65;;
64060;SDS011;60147;55.036;73.242;2022-08-21T15:05:15;10.18;;;3.22;;
64060;SDS011;60147;55.036;73.242;2022-08-21T15:07:41;9.65;;;3.22;;
64060;SDS011;60147;55.036;73.242;2022-08-21T15:10:07;7.20;;;2.65;;
64060;SDS011;60147;55.036;73.242;2022-08-21T15:12:34;12.00;;;3.00;;
64060;SDS011;60147;55.036;73.242;2022-08-21T15:15:00;7.55;;;2.95;;
64060;SDS011;60147;55.036;73.242;2022-08-21T15:17:26;9.68;;;3.05;;
64060;SDS011;60147;55.036;73.242;2022-08-21T15:19:52;5.55;;;2.70;;
64060;SDS011;60147;55.036;73.242;2022-08-21T15:22:18;5.07;;;2.70;;
64060;SDS011;60147;55.036;73.242;2022-08-21T15:24:48;7.70;;;2.40;;
64060;SDS011;60147;55.036;73.242;2022-08-21T15:27:14;7.22;;;3.60;;
64060;SDS011;60147;55.036;73.242;2022-08-21T15:29:41;7.28;;;4.32;;
64060;SDS011;60147;55.036;73.242;2022-08-21T15:34:48;14.38;;;5.85;;
64060;SDS011;60147;55.036;73.242;2022-08-21T15:37:14;13.30;;;5.20;;
64060;SDS011;60147;55.036;73.242;2022-08-21T15:39:40;10.10;;;4.53;;
64060;SDS011;60147;55.036;73.242;2022-08-21T15:42:06;15.35;;;5.53;;
64060;SDS011;60147;55.036;73.242;2022-08-21T15:44:41;18.23;;;7.38;;
64060;SDS011;60147;55.036;73.242;2022-08-21T15:47:13;30.45;;;10.60;;
64060;SDS011;60147;55.036;73.242;2022-08-21T15:52:18;24.02;;;7.20;;
64060;SDS011;60147;55.036;73.242;2022-08-21T15:54:44;18.75;;;6.60;;
64060;SDS011;60147;55.036;73.242;2022-08-21T15:59:43;14.70;;;4.95;;
64060;SDS011;60147;55.036;73.242;2022-08-21T16:02:22;17.17;;;4.70;;
64060;SDS011;60147;55.036;73.242;2022-08-21T16:04:49;12.90;;;3.78;;
64060;SDS011;60147;55.036;73.242;2022-08-21T16:07:15;9.48;;;3.22;;
64060;SDS011;60147;55.036;73.242;2022-08-21T16:09:41;13.57;;;3.70;;
64060;SDS011;60147;55.036;73.242;2022-08-21T16:12:08;9.68;;;3.72;;
64060;SDS011;60147;55.036;73.242;2022-08-21T16:14:35;10.70;;;4.22;;
64060;SDS011;60147;55.036;73.242;2022-08-21T16:17:05;11.05;;;3.83;;
64060;SDS011;60147;55.036;73.242;2022-08-21T16:19:31;7.93;;;3.55;;